createdAt,value
2018-08-22T16:02:49.001Z,33.80
2018-08-22T16:05:17.230Z,33.30
2018-08-22T16:10:13.386Z,33.30
2018-08-22T16:12:41.585Z,33.20
2018-08-22T16:15:09.757Z,33.00
2018-08-22T16:17:37.987Z,33.10
2018-08-22T16:20:06.167Z,33.60
2018-08-22T16:22:34.802Z,34.10
2018-08-22T16:25:03.023Z,33.90
2018-08-22T16:27:31.195Z,33.60
2018-08-22T16:29:59.405Z,32.90
2018-08-22T16:32:27.605Z,32.70
2018-08-22T16:34:55.770Z,32.60
2018-08-22T16:39:51.859Z,32.20
2018-08-22T16:44:52.315Z,32.10
2018-08-22T16:49:52.754Z,32.00
2018-08-22T16:52:20.939Z,31.70
2018-08-22T16:54:54.374Z,31.40
2018-08-22T16:59:50.461Z,31.70
2018-08-22T17:02:18.653Z,31.10
2018-08-22T17:04:46.823Z,31.20
2018-08-22T17:09:48.043Z,31.20
2018-08-22T17:12:16.283Z,31.00
2018-08-22T17:14:44.458Z,30.60
2018-08-22T17:17:12.645Z,30.30
2018-08-22T17:22:08.736Z,30.40
2018-08-22T17:24:36.911Z,30.40
2018-08-22T17:27:05.172Z,30.50
2018-08-22T17:32:04.947Z,29.80
2018-08-22T17:34:33.446Z,29.60
2018-08-22T17:37:06.765Z,29.50
2018-08-22T17:42:02.892Z,29.10
2018-08-22T17:44:31.085Z,28.80
2018-08-22T17:46:59.406Z,28.70
2018-08-22T17:49:27.608Z,28.50
2018-08-22T17:51:59.626Z,28.40
2018-08-22T17:54:27.972Z,28.10
2018-08-22T18:01:58.609Z,27.80
2018-08-22T18:09:22.754Z,27.60
2018-08-22T18:11:50.932Z,27.40
2018-08-22T18:14:19.122Z,27.40
2018-08-22T18:16:50.339Z,27.30
2018-08-22T18:19:18.567Z,27.10
2018-08-22T18:21:46.980Z,27.00
2018-08-22T18:26:46.822Z,26.80
2018-08-22T18:31:42.901Z,26.70
2018-08-22T18:34:11.067Z,26.60
2018-08-22T18:36:39.261Z,26.60
2018-08-22T18:39:10.761Z,26.50
2018-08-22T18:41:38.943Z,26.40
2018-08-22T18:44:07.097Z,26.30
2018-08-22T18:51:32.069Z,26.00
2018-08-22T18:54:00.997Z,26.00
2018-08-22T18:56:29.124Z,26.00
2018-08-22T18:58:57.294Z,25.80
2018-08-22T19:03:55.329Z,25.70
2018-08-22T19:06:23.498Z,25.50
2018-08-22T19:08:51.678Z,25.50
2018-08-22T19:11:20.486Z,25.40
2018-08-22T19:13:48.653Z,25.40
2018-08-22T19:16:16.845Z,25.40
2018-08-22T19:18:45.018Z,25.30
2018-08-22T19:21:13.183Z,25.20
2018-08-22T19:28:55.734Z,25.10
2018-08-22T19:31:23.905Z,25.10
2018-08-22T19:33:52.094Z,25.00
2018-08-22T19:36:20.259Z,25.00
2018-08-22T19:38:48.521Z,24.80
2018-08-22T19:41:23.719Z,24.80
2018-08-22T19:43:52.007Z,24.70
2018-08-22T19:46:20.281Z,24.30
2018-08-22T19:48:48.644Z,24.10
2018-08-22T19:51:16.933Z,24.00
2018-08-22T19:53:57.240Z,23.90
2018-08-22T19:56:25.820Z,23.80
2018-08-22T19:58:53.897Z,24.00
2018-08-22T20:01:22.109Z,23.90
2018-08-22T20:06:20.148Z,23.90
2018-08-22T20:08:48.805Z,23.80
2018-08-22T20:14:11.461Z,23.70
2018-08-22T20:19:07.569Z,23.40
2018-08-22T20:21:36.671Z,23.20
2018-08-22T20:24:06.231Z,23.10
2018-08-22T20:26:34.871Z,23.00
2018-08-22T20:29:03.671Z,22.90
2018-08-22T20:31:32.408Z,22.90
2018-08-22T20:34:05.674Z,22.80
2018-08-22T20:36:33.847Z,22.70
2018-08-22T20:39:06.661Z,22.70
2018-08-22T20:44:04.943Z,22.50
2018-08-22T20:46:33.105Z,22.60
2018-08-22T20:49:01.277Z,22.50
2018-08-22T20:51:30.663Z,22.60
2018-08-22T20:54:04.193Z,22.60
2018-08-22T20:56:32.389Z,22.50
2018-08-22T20:59:00.541Z,22.50
2018-08-22T21:01:28.709Z,22.70
2018-08-22T21:03:56.910Z,22.60
2018-08-22T21:08:53.022Z,22.40
2018-08-22T21:13:49.211Z,22.40
2018-08-22T21:18:45.233Z,22.30
2018-08-22T21:21:21.506Z,22.30
2018-08-22T21:28:55.508Z,22.30
2018-08-22T21:31:24.493Z,22.40
2018-08-22T21:36:21.111Z,22.60
2018-08-22T21:38:49.286Z,22.60
2018-08-22T21:41:17.462Z,22.70
2018-08-22T21:43:45.665Z,22.70
2018-08-22T21:46:13.845Z,22.80
2018-08-22T21:48:42.038Z,22.90
2018-08-22T21:56:06.081Z,23.00
2018-08-22T21:58:34.269Z,23.00
